Alton, Maine
Current Conditions -  °F | °C
As of 6:53 PM on Friday 24 Oct 2014 (Local Time) from KBGR Reporting Station
Light Rain Light Rain  
Wind Chill: 38°   Ceiling: 900
Heat Index: 44°   Visibility: 3mi
Dew Point: 42°   Wind: 13mph
Humidity: 93%   Direction: 360°N
Pressure: 29.66"   Gusts: NA
Location:  45.0236°N, 68.7394°W
Report Text: KBGR 242253Z 36011KT 3SM -RA BR BKN009 OVC011 07/06 A2966 RMK AO2 DZE07RAB07 SLP045 P0003 T00670056
Loading
Personal Weather Stations






























Interactive Weather Map
Tropical Storm Tracking
New forecast layout! Learn more

10-Day Weather Forecast

Advertisements
Track Severe Weather on mobile